sensor_id;sensor_type;location;lat;lon;timestamp;pressure;altitude;pressure_sealevel;temperature;humidity
75594;BME280;64176;49.156;7.810;2022-12-29T00:01:36;98595.59;;;9.55;81.12
75594;BME280;64176;49.156;7.810;2022-12-29T00:04:23;98598.19;;;9.60;80.04
75594;BME280;64176;49.156;7.810;2022-12-29T00:07:09;98630.81;;;9.62;80.00
75594;BME280;64176;49.156;7.810;2022-12-29T00:09:54;98608.41;;;9.96;77.67
75594;BME280;64176;49.156;7.810;2022-12-29T00:12:38;98612.72;;;9.93;77.71
75594;BME280;64176;49.156;7.810;2022-12-29T00:15:40;98590.34;;;10.04;77.06
75594;BME280;64176;49.156;7.810;2022-12-29T00:18:26;98622.16;;;9.98;77.63
75594;BME280;64176;49.156;7.810;2022-12-29T00:21:17;98629.06;;;10.02;77.89
75594;BME280;64176;49.156;7.810;2022-12-29T00:24:21;98631.69;;;9.82;79.70
75594;BME280;64176;49.156;7.810;2022-12-29T00:30:14;98637.69;;;9.62;81.96
75594;BME280;64176;49.156;7.810;2022-12-29T00:33:19;98635.13;;;9.43;83.63
75594;BME280;64176;49.156;7.810;2022-12-29T00:36:30;98626.56;;;9.37;84.39
75594;BME280;64176;49.156;7.810;2022-12-29T00:39:18;98631.69;;;9.23;85.86
75594;BME280;64176;49.156;7.810;2022-12-29T00:42:20;98632.56;;;9.22;85.90
75594;BME280;64176;49.156;7.810;2022-12-29T00:45:24;98629.09;;;9.17;86.58
75594;BME280;64176;49.156;7.810;2022-12-29T00:48:08;98608.50;;;9.11;86.94
75594;BME280;64176;49.156;7.810;2022-12-29T00:50:56;98599.03;;;9.04;87.54
75594;BME280;64176;49.156;7.810;2022-12-29T00:53:45;98606.78;;;9.11;87.46
75594;BME280;64176;49.156;7.810;2022-12-29T00:56:29;98604.19;;;9.11;87.50
75594;BME280;64176;49.156;7.810;2022-12-29T00:59:16;98596.47;;;9.02;88.31
75594;BME280;64176;49.156;7.810;2022-12-29T01:02:00;98610.19;;;8.95;88.64
75594;BME280;64176;49.156;7.810;2022-12-29T01:04:48;98596.47;;;9.04;88.11
75594;BME280;64176;49.156;7.810;2022-12-29T01:07:34;98622.22;;;9.07;88.10
75594;BME280;64176;49.156;7.810;2022-12-29T01:10:19;98622.25;;;9.15;87.78
75594;BME280;64176;49.156;7.810;2022-12-29T01:13:03;98617.94;;;9.10;88.23
75594;BME280;64176;49.156;7.810;2022-12-29T01:15:51;98619.66;;;9.05;88.34
75594;BME280;64176;49.156;7.810;2022-12-29T01:18:36;98619.66;;;9.04;88.86
75594;BME280;64176;49.156;7.810;2022-12-29T01:21:22;98613.66;;;9.05;88.94
75594;BME280;64176;49.156;7.810;2022-12-29T01:24:08;98622.22;;;9.07;88.79
75594;BME280;64176;49.156;7.810;2022-12-29T01:26:57;98604.19;;;9.02;89.08
75594;BME280;64176;49.156;7.810;2022-12-29T01:29:41;98608.47;;;9.08;88.45
75594;BME280;64176;49.156;7.810;2022-12-29T01:32:27;98603.34;;;9.05;88.31
75594;BME280;64176;49.156;7.810;2022-12-29T01:35:14;98616.25;;;9.16;87.87
75594;BME280;64176;49.156;7.810;2022-12-29T01:37:58;98611.09;;;9.16;87.59
75594;BME280;64176;49.156;7.810;2022-12-29T01:40:46;98622.25;;;9.25;87.24
75594;BME280;64176;49.156;7.810;2022-12-29T01:46:44;98613.66;;;9.20;87.31
75594;BME280;64176;49.156;7.810;2022-12-29T01:49:31;98613.66;;;9.23;86.94
75594;BME280;64176;49.156;7.810;2022-12-29T01:52:18;98615.38;;;9.21;87.23
75594;BME280;64176;49.156;7.810;2022-12-29T01:55:03;98617.09;;;9.16;87.62
75594;BME280;64176;49.156;7.810;2022-12-29T01:57:51;98625.66;;;9.18;87.32
75594;BME280;64176;49.156;7.810;2022-12-29T02:00:37;98634.28;;;9.12;87.66
75594;BME280;64176;49.156;7.810;2022-12-29T02:03:25;98620.50;;;9.10;88.03
75594;BME280;64176;49.156;7.810;2022-12-29T02:06:17;98634.25;;;9.19;87.45
75594;BME280;64176;49.156;7.810;2022-12-29T02:09:03;98639.44;;;9.12;87.93
75594;BME280;64176;49.156;7.810;2022-12-29T02:11:51;98645.44;;;9.19;87.21
75594;BME280;64176;49.156;7.810;2022-12-29T02:14:38;98631.69;;;9.17;87.32
75594;BME280;64176;49.156;7.810;2022-12-29T02:23:48;98605.06;;;9.26;86.67
75594;BME280;64176;49.156;7.810;2022-12-29T02:30:25;98592.16;;;9.35;85.42
75594;BME280;64176;49.156;7.810;2022-12-29T02:36:07;98591.31;;;9.33;85.60
75594;BME280;64176;49.156;7.810;2022-12-29T02:39:34;98594.75;;;9.36;85.31
75594;BME280;64176;49.156;7.810;2022-12-29T02:42:33;98587.88;;;9.35;85.20
75594;BME280;64176;49.156;7.810;2022-12-29T02:45:31;98584.44;;;9.35;85.05
75594;BME280;64176;49.156;7.810;2022-12-29T02:48:43;98576.69;;;9.44;84.33
75594;BME280;64176;49.156;7.810;2022-12-29T02:51:35;98590.44;;;9.44;84.26
75594;BME280;64176;49.156;7.810;2022-12-29T02:54:21;98577.56;;;9.46;83.81
75594;BME280;64176;49.156;7.810;2022-12-29T03:00:12;98559.50;;;9.47;83.28
75594;BME280;64176;49.156;7.810;2022-12-29T03:06:20;98554.31;;;9.58;82.23
75594;BME280;64176;49.156;7.810;2022-12-29T03:12:54;98548.25;;;9.76;80.75
75594;BME280;64176;49.156;7.810;2022-12-29T03:16:07;98543.97;;;9.64;81.08
75594;BME280;64176;49.156;7.810;2022-12-29T03:19:17;98526.75;;;9.78;79.69
75594;BME280;64176;49.156;7.810;2022-12-29T03:22:12;98531.06;;;9.67;80.17
75594;BME280;64176;49.156;7.810;2022-12-29T03:25:30;98522.44;;;9.76;79.57
75594;BME280;64176;49.156;7.810;2022-12-29T03:28:28;98525.88;;;9.78;79.58
75594;BME280;64176;49.156;7.810;2022-12-29T03:31:19;98529.28;;;9.89;78.90
75594;BME280;64176;49.156;7.810;2022-12-29T03:34:06;98519.00;;;9.77;79.57
75594;BME280;64176;49.156;7.810;2022-12-29T03:37:00;98512.03;;;9.97;78.05
75594;BME280;64176;49.156;7.810;2022-12-29T03:39:48;98513.78;;;9.94;78.13
75594;BME280;64176;49.156;7.810;2022-12-29T03:42:34;98512.88;;;10.04;77.55
75594;BME280;64176;49.156;7.810;2022-12-29T03:45:21;98512.03;;;10.00;77.29
75594;BME280;64176;49.156;7.810;2022-12-29T03:48:09;98496.50;;;10.08;76.61
75594;BME280;64176;49.156;7.810;2022-12-29T03:50:56;98506.81;;;10.14;76.24
75594;BME280;64176;49.156;7.810;2022-12-29T03:53:42;98509.41;;;10.09;76.59
75594;BME280;64176;49.156;7.810;2022-12-29T03:56:28;98517.09;;;10.17;76.14
75594;BME280;64176;49.156;7.810;2022-12-29T03:59:12;98502.47;;;10.17;75.92
75594;BME280;64176;49.156;7.810;2022-12-29T04:01:59;98500.75;;;10.16;75.94
75594;BME280;64176;49.156;7.810;2022-12-29T04:04:43;98493.91;;;10.18;75.83
75594;BME280;64176;49.156;7.810;2022-12-29T04:07:27;98498.22;;;10.10;76.22
75594;BME280;64176;49.156;7.810;2022-12-29T04:10:15;98496.41;;;10.29;74.96
75594;BME280;64176;49.156;7.810;2022-12-29T04:13:04;98499.84;;;10.34;74.43
75594;BME280;64176;49.156;7.810;2022-12-29T04:15:49;98489.44;;;10.48;73.65
75594;BME280;64176;49.156;7.810;2022-12-29T04:18:36;98480.06;;;10.29;74.37
75594;BME280;64176;49.156;7.810;2022-12-29T04:21:20;98504.97;;;10.42;73.95
75594;BME280;64176;49.156;7.810;2022-12-29T04:24:06;98494.69;;;10.36;74.70
75594;BME280;64176;49.156;7.810;2022-12-29T04:26:59;98503.22;;;10.42;73.92
75594;BME280;64176;49.156;7.810;2022-12-29T04:30:04;98490.47;;;10.09;77.14
75594;BME280;64176;49.156;7.810;2022-12-29T04:32:57;98496.50;;;10.09;77.72
75594;BME280;64176;49.156;7.810;2022-12-29T04:35:42;98514.56;;;10.06;77.99
75594;BME280;64176;49.156;7.810;2022-12-29T04:38:30;98501.69;;;10.03;77.75
75594;BME280;64176;49.156;7.810;2022-12-29T04:41:14;98514.56;;;10.18;77.10
75594;BME280;64176;49.156;7.810;2022-12-29T04:43:59;98502.50;;;10.22;76.62
75594;BME280;64176;49.156;7.810;2022-12-29T04:47:02;98486.13;;;10.21;76.29
75594;BME280;64176;49.156;7.810;2022-12-29T04:49:56;98505.88;;;10.29;76.13
75594;BME280;64176;49.156;7.810;2022-12-29T04:53:01;98487.00;;;10.22;76.21
75594;BME280;64176;49.156;7.810;2022-12-29T04:55:50;98505.88;;;10.30;75.92
75594;BME280;64176;49.156;7.810;2022-12-29T04:58:35;98495.59;;;10.21;76.22
75594;BME280;64176;49.156;7.810;2022-12-29T05:01:19;98489.56;;;10.27;75.69
75594;BME280;64176;49.156;7.810;2022-12-29T05:04:04;98487.00;;;10.25;76.10
75594;BME280;64176;49.156;7.810;2022-12-29T05:06:50;98497.22;;;10.40;74.47
75594;BME280;64176;49.156;7.810;2022-12-29T05:09:37;98497.19;;;10.45;74.42
75594;BME280;64176;49.156;7.810;2022-12-29T05:12:21;98485.94;;;10.53;73.73
75594;BME280;64176;49.156;7.810;2022-12-29T05:15:16;98477.41;;;10.44;74.07
75594;BME280;64176;49.156;7.810;2022-12-29T05:18:01;98473.94;;;10.48;73.82
75594;BME280;64176;49.156;7.810;2022-12-29T05:20:50;98479.03;;;10.58;73.35
75594;BME280;64176;49.156;7.810;2022-12-29T05:23:36;98471.28;;;10.55;73.17
75594;BME280;64176;49.156;7.810;2022-12-29T05:26:23;98477.25;;;10.64;72.67
75594;BME280;64176;49.156;7.810;2022-12-29T05:29:14;98464.28;;;10.71;72.20
75594;BME280;64176;49.156;7.810;2022-12-29T05:31:58;98466.84;;;10.74;71.95
75594;BME280;64176;49.156;7.810;2022-12-29T05:34:45;98462.50;;;10.78;71.34
75594;BME280;64176;49.156;7.810;2022-12-29T05:37:29;98448.75;;;10.74;71.52
75594;BME280;64176;49.156;7.810;2022-12-29T05:40:13;98457.34;;;10.76;71.41
75594;BME280;64176;49.156;7.810;2022-12-29T05:43:00;98437.53;;;10.78;71.00
75594;BME280;64176;49.156;7.810;2022-12-29T05:45:58;98448.63;;;10.91;69.69
75594;BME280;64176;49.156;7.810;2022-12-29T05:49:01;98457.25;;;10.88;69.92
75594;BME280;64176;49.156;7.810;2022-12-29T05:52:04;98458.19;;;10.78;70.34
75594;BME280;64176;49.156;7.810;2022-12-29T05:54:50;98443.53;;;10.80;70.04
75594;BME280;64176;49.156;7.810;2022-12-29T05:57:38;98459.84;;;10.87;69.65
75594;BME280;64176;49.156;7.810;2022-12-29T06:00:31;98456.25;;;11.03;68.41
75594;BME280;64176;49.156;7.810;2022-12-29T06:03:16;98434.72;;;11.04;67.85
75594;BME280;64176;49.156;7.810;2022-12-29T06:06:00;98442.41;;;11.06;67.57
75594;BME280;64176;49.156;7.810;2022-12-29T06:08:45;98458.84;;;11.02;68.07
75594;BME280;64176;49.156;7.810;2022-12-29T06:11:31;98455.22;;;11.18;67.22
75594;BME280;64176;49.156;7.810;2022-12-29T06:14:17;98458.63;;;11.24;66.55
75594;BME280;64176;49.156;7.810;2022-12-29T06:17:01;98446.59;;;11.22;66.68
75594;BME280;64176;49.156;7.810;2022-12-29T06:19:49;98435.38;;;11.23;66.73
75594;BME280;64176;49.156;7.810;2022-12-29T06:22:35;98452.50;;;11.35;65.58
75594;BME280;64176;49.156;7.810;2022-12-29T06:25:20;98444.84;;;11.22;66.36
75594;BME280;64176;49.156;7.810;2022-12-29T06:28:06;98430.94;;;11.36;65.64
75594;BME280;64176;49.156;7.810;2022-12-29T06:30:50;98425.88;;;11.25;65.87
75594;BME280;64176;49.156;7.810;2022-12-29T06:33:38;98423.19;;;11.32;65.38
75594;BME280;64176;49.156;7.810;2022-12-29T06:36:25;98424.00;;;11.38;64.76
75594;BME280;64176;49.156;7.810;2022-12-29T06:39:10;98438.81;;;11.22;65.78
75594;BME280;64176;49.156;7.810;2022-12-29T06:41:57;98431.66;;;11.47;63.92
75594;BME280;64176;49.156;7.810;2022-12-29T06:44:58;98439.56;;;11.35;65.10
75594;BME280;64176;49.156;7.810;2022-12-29T06:47:44;98436.75;;;11.54;63.89
75594;BME280;64176;49.156;7.810;2022-12-29T06:50:28;98427.25;;;11.56;63.53
75594;BME280;64176;49.156;7.810;2022-12-29T06:53:14;98454.09;;;11.45;64.09
75594;BME280;64176;49.156;7.810;2022-12-29T06:55:58;98422.09;;;11.52;63.48
75594;BME280;64176;49.156;7.810;2022-12-29T06:58:42;98441.94;;;11.51;63.93
75594;BME280;64176;49.156;7.810;2022-12-29T07:01:26;98452.09;;;11.70;62.98
75594;BME280;64176;49.156;7.810;2022-12-29T07:04:11;98447.75;;;11.72;62.75
75594;BME280;64176;49.156;7.810;2022-12-29T07:06:55;98444.50;;;11.56;63.14
75594;BME280;64176;49.156;7.810;2022-12-29T07:09:39;98441.91;;;11.54;63.82
75594;BME280;64176;49.156;7.810;2022-12-29T07:12:23;98459.81;;;11.73;62.61
75594;BME280;64176;49.156;7.810;2022-12-29T07:15:10;98454.63;;;11.74;62.71
75594;BME280;64176;49.156;7.810;2022-12-29T07:17:58;98448.59;;;11.77;62.70
75594;BME280;64176;49.156;7.810;2022-12-29T07:20:45;98451.91;;;11.88;62.20
75594;BME280;64176;49.156;7.810;2022-12-29T07:23:29;98445.97;;;11.80;62.52
75594;BME280;64176;49.156;7.810;2022-12-29T07:26:14;98464.09;;;11.78;62.90
75594;BME280;64176;49.156;7.810;2022-12-29T07:29:00;98463.22;;;11.81;62.40
75594;BME280;64176;49.156;7.810;2022-12-29T07:31:45;98456.34;;;11.78;62.88
75594;BME280;64176;49.156;7.810;2022-12-29T07:34:28;98454.72;;;11.65;63.55
75594;BME280;64176;49.156;7.810;2022-12-29T07:37:15;98467.53;;;11.80;63.00
75594;BME280;64176;49.156;7.810;2022-12-29T07:40:00;98470.16;;;11.76;63.08
75594;BME280;64176;49.156;7.810;2022-12-29T07:42:49;98470.16;;;11.73;63.56
75594;BME280;64176;49.156;7.810;2022-12-29T07:45:42;98463.16;;;11.82;63.05
75594;BME280;64176;49.156;7.810;2022-12-29T07:48:27;98473.59;;;11.79;63.01
75594;BME280;64176;49.156;7.810;2022-12-29T07:51:11;98491.56;;;11.90;62.93
75594;BME280;64176;49.156;7.810;2022-12-29T07:53:55;98472.81;;;11.68;64.08
75594;BME280;64176;49.156;7.810;2022-12-29T07:56:39;98486.50;;;11.81;63.64
75594;BME280;64176;49.156;7.810;2022-12-29T07:59:24;98484.75;;;11.83;63.74
75594;BME280;64176;49.156;7.810;2022-12-29T08:02:10;98502.00;;;11.82;64.13
75594;BME280;64176;49.156;7.810;2022-12-29T08:04:55;98498.66;;;11.71;64.72
75594;BME280;64176;49.156;7.810;2022-12-29T08:07:39;98504.78;;;11.64;65.49
75594;BME280;64176;49.156;7.810;2022-12-29T08:10:23;98497.78;;;11.72;64.88
75594;BME280;64176;49.156;7.810;2022-12-29T08:13:07;98504.75;;;11.65;65.36
75594;BME280;64176;49.156;7.810;2022-12-29T08:15:57;98477.06;;;11.72;65.03
75594;BME280;64176;49.156;7.810;2022-12-29T08:18:41;98503.81;;;11.73;65.34
75594;BME280;64176;49.156;7.810;2022-12-29T08:21:28;98513.44;;;11.61;66.26
75594;BME280;64176;49.156;7.810;2022-12-29T08:24:14;98523.72;;;11.69;66.16
75594;BME280;64176;49.156;7.810;2022-12-29T08:27:04;98510.84;;;11.60;67.11
75594;BME280;64176;49.156;7.810;2022-12-29T08:29:50;98528.09;;;11.61;66.76
75594;BME280;64176;49.156;7.810;2022-12-29T08:32:37;98537.56;;;11.63;66.98
75594;BME280;64176;49.156;7.810;2022-12-29T08:35:23;98519.53;;;11.57;67.23
75594;BME280;64176;49.156;7.810;2022-12-29T08:38:07;98535.91;;;11.59;67.17
75594;BME280;64176;49.156;7.810;2022-12-29T08:40:56;98565.28;;;11.49;68.71
75594;BME280;64176;49.156;7.810;2022-12-29T08:43:40;98552.59;;;11.25;70.92
75594;BME280;64176;49.156;7.810;2022-12-29T08:46:24;98557.81;;;11.19;71.55
75594;BME280;64176;49.156;7.810;2022-12-29T08:49:10;98556.16;;;11.13;71.99
75594;BME280;64176;49.156;7.810;2022-12-29T08:51:57;98567.41;;;11.06;73.28
75594;BME280;64176;49.156;7.810;2022-12-29T08:54:43;98572.66;;;10.95;73.46
75594;BME280;64176;49.156;7.810;2022-12-29T08:57:30;98572.78;;;10.79;75.23
75594;BME280;64176;49.156;7.810;2022-12-29T09:00:23;98580.56;;;10.73;75.84
75594;BME280;64176;49.156;7.810;2022-12-29T09:03:09;98592.72;;;10.57;77.58
75594;BME280;64176;49.156;7.810;2022-12-29T09:05:56;98586.75;;;10.44;78.73
75594;BME280;64176;49.156;7.810;2022-12-29T09:08:40;98587.66;;;10.37;79.64
75594;BME280;64176;49.156;7.810;2022-12-29T09:11:26;98584.22;;;10.34;79.66
75594;BME280;64176;49.156;7.810;2022-12-29T09:14:11;98605.75;;;10.30;80.50
75594;BME280;64176;49.156;7.810;2022-12-29T09:17:00;98600.63;;;10.22;81.40
75594;BME280;64176;49.156;7.810;2022-12-29T09:20:04;98600.63;;;10.20;81.41
75594;BME280;64176;49.156;7.810;2022-12-29T09:22:48;98608.38;;;10.05;82.80
75594;BME280;64176;49.156;7.810;2022-12-29T09:25:33;98612.69;;;10.09;82.85
75594;BME280;64176;49.156;7.810;2022-12-29T09:28:20;98610.94;;;10.14;82.22
75594;BME280;64176;49.156;7.810;2022-12-29T09:31:04;98604.94;;;10.20;81.93
75594;BME280;64176;49.156;7.810;2022-12-29T09:33:48;98604.06;;;10.19;81.65
75594;BME280;64176;49.156;7.810;2022-12-29T09:36:33;98592.88;;;10.14;81.98
75594;BME280;64176;49.156;7.810;2022-12-29T09:39:16;98598.84;;;10.35;80.69
75594;BME280;64176;49.156;7.810;2022-12-29T09:45:15;98610.88;;;10.39;80.78
75594;BME280;64176;49.156;7.810;2022-12-29T09:48:06;98609.13;;;10.45;80.73
75594;BME280;64176;49.156;7.810;2022-12-29T09:50:59;98597.94;;;10.42;80.20
75594;BME280;64176;49.156;7.810;2022-12-29T09:56:37;98609.94;;;10.55;79.65
75594;BME280;64176;49.156;7.810;2022-12-29T09:59:26;98620.22;;;10.67;78.67
75594;BME280;64176;49.156;7.810;2022-12-29T10:11:42;98622.00;;;10.53;78.64
75594;BME280;64176;49.156;7.810;2022-12-29T10:20:52;98622.91;;;10.44;79.52
75594;BME280;64176;49.156;7.810;2022-12-29T10:23:44;98634.88;;;10.62;77.83
75594;BME280;64176;49.156;7.810;2022-12-29T10:26:35;98634.81;;;10.77;76.96
75594;BME280;64176;49.156;7.810;2022-12-29T10:29:29;98623.59;;;10.78;77.41
75594;BME280;64176;49.156;7.810;2022-12-29T10:32:23;98634.75;;;10.83;76.38
75594;BME280;64176;49.156;7.810;2022-12-29T10:35:26;98614.06;;;10.88;76.04
75594;BME280;64176;49.156;7.810;2022-12-29T10:38:33;98615.69;;;11.04;76.03
75594;BME280;64176;49.156;7.810;2022-12-29T10:41:28;98614.78;;;11.08;76.42
75594;BME280;64176;49.156;7.810;2022-12-29T10:44:18;98601.88;;;11.08;75.76
75594;BME280;64176;49.156;7.810;2022-12-29T10:47:06;98605.34;;;11.04;74.58
75594;BME280;64176;49.156;7.810;2022-12-29T10:49:56;98609.69;;;10.99;75.08
75594;BME280;64176;49.156;7.810;2022-12-29T10:52:42;98606.25;;;10.94;76.07
75594;BME280;64176;49.156;7.810;2022-12-29T10:55:30;98627.91;;;10.82;77.12
75594;BME280;64176;49.156;7.810;2022-12-29T10:58:16;98625.34;;;10.78;77.22
75594;BME280;64176;49.156;7.810;2022-12-29T11:01:01;98634.81;;;10.74;77.40
75594;BME280;64176;49.156;7.810;2022-12-29T11:04:22;98634.06;;;10.54;77.69
75594;BME280;64176;49.156;7.810;2022-12-29T11:07:13;98639.31;;;10.36;79.09
75594;BME280;64176;49.156;7.810;2022-12-29T11:13:47;98635.94;;;10.03;82.36
75594;BME280;64176;49.156;7.810;2022-12-29T11:16:33;98626.47;;;10.01;83.31
75594;BME280;64176;49.156;7.810;2022-12-29T11:19:22;98626.50;;;9.90;84.53
75594;BME280;64176;49.156;7.810;2022-12-29T11:22:28;98626.50;;;9.85;85.06
75594;BME280;64176;49.156;7.810;2022-12-29T11:25:12;98625.66;;;9.82;85.20
75594;BME280;64176;49.156;7.810;2022-12-29T11:28:01;98616.16;;;9.89;85.04
75594;BME280;64176;49.156;7.810;2022-12-29T11:30:59;98612.72;;;9.93;85.25
75594;BME280;64176;49.156;7.810;2022-12-29T11:33:43;98632.53;;;9.92;86.16
75594;BME280;64176;49.156;7.810;2022-12-29T11:36:28;98601.50;;;10.07;85.88
75594;BME280;64176;49.156;7.810;2022-12-29T11:39:34;98621.28;;;10.19;85.37
75594;BME280;64176;49.156;7.810;2022-12-29T11:43:11;98616.97;;;10.27;85.60
75594;BME280;64176;49.156;7.810;2022-12-29T11:45:34;98622.06;;;10.45;84.39
75594;BME280;64176;49.156;7.810;2022-12-29T11:48:20;98617.66;;;10.61;82.34
75594;BME280;64176;49.156;7.810;2022-12-29T11:51:05;98603.00;;;10.66;81.52
75594;BME280;64176;49.156;7.810;2022-12-29T11:53:57;98603.78;;;10.77;79.79
75594;BME280;64176;49.156;7.810;2022-12-29T11:56:43;98608.16;;;10.71;80.04
75594;BME280;64176;49.156;7.810;2022-12-29T12:02:36;98596.16;;;10.57;80.15
75594;BME280;64176;49.156;7.810;2022-12-29T12:05:42;98599.63;;;10.50;80.72
75594;BME280;64176;49.156;7.810;2022-12-29T12:08:58;98598.00;;;10.30;82.18
75594;BME280;64176;49.156;7.810;2022-12-29T12:11:45;98628.16;;;10.08;84.04
75594;BME280;64176;49.156;7.810;2022-12-29T12:14:41;98643.75;;;9.17;88.17
75594;BME280;64176;49.156;7.810;2022-12-29T12:21:14;98622.22;;;9.10;88.37
75594;BME280;64176;49.156;7.810;2022-12-29T12:24:15;98633.41;;;9.04;87.73
75594;BME280;64176;49.156;7.810;2022-12-29T12:30:01;98611.94;;;9.02;88.44
75594;BME280;64176;49.156;7.810;2022-12-29T12:33:00;98608.50;;;9.12;88.41
75594;BME280;64176;49.156;7.810;2022-12-29T12:42:25;98604.19;;;9.01;88.72
75594;BME280;64176;49.156;7.810;2022-12-29T13:19:54;98574.97;;;9.23;90.01
75594;BME280;64176;49.156;7.810;2022-12-29T13:22:49;98570.69;;;9.25;90.04
75594;BME280;64176;49.156;7.810;2022-12-29T13:25:51;98574.13;;;9.24;89.94
75594;BME280;64176;49.156;7.810;2022-12-29T13:34:51;98580.13;;;9.11;90.80
75594;BME280;64176;49.156;7.810;2022-12-29T13:37:52;98585.28;;;9.11;90.38
75594;BME280;64176;49.156;7.810;2022-12-29T13:40:42;98581.00;;;9.10;90.26
75594;BME280;64176;49.156;7.810;2022-12-29T13:43:31;98580.16;;;9.03;89.85
75594;BME280;64176;49.156;7.810;2022-12-29T13:46:29;98597.31;;;8.98;90.38
75594;BME280;64176;49.156;7.810;2022-12-29T13:49:18;98611.88;;;8.95;89.96
75594;BME280;64176;49.156;7.810;2022-12-29T13:55:16;98619.59;;;8.73;90.06
75594;BME280;64176;49.156;7.810;2022-12-29T14:03:56;98636.72;;;8.58;90.32
75594;BME280;64176;49.156;7.810;2022-12-29T14:06:43;98630.72;;;8.65;90.56
75594;BME280;64176;49.156;7.810;2022-12-29T14:09:49;98621.28;;;8.58;90.56
75594;BME280;64176;49.156;7.810;2022-12-29T14:12:43;98616.13;;;8.61;90.24
75594;BME280;64176;49.156;7.810;2022-12-29T14:15:27;98624.72;;;8.73;90.12
75594;BME280;64176;49.156;7.810;2022-12-29T14:20:58;98626.47;;;8.84;88.46
75594;BME280;64176;49.156;7.810;2022-12-29T14:23:49;98638.53;;;8.92;87.19
75594;BME280;64176;49.156;7.810;2022-12-29T14:26:35;98635.94;;;8.97;86.60
75594;BME280;64176;49.156;7.810;2022-12-29T14:35:43;98651.41;;;8.89;87.64
75594;BME280;64176;49.156;7.810;2022-12-29T14:38:44;98641.97;;;8.82;88.20
75594;BME280;64176;49.156;7.810;2022-12-29T14:41:32;98636.81;;;8.82;88.10
75594;BME280;64176;49.156;7.810;2022-12-29T14:44:20;98630.78;;;8.85;88.70
75594;BME280;64176;49.156;7.810;2022-12-29T14:47:06;98613.56;;;8.73;89.33
75594;BME280;64176;49.156;7.810;2022-12-29T14:49:51;98631.63;;;8.71;88.69
75594;BME280;64176;49.156;7.810;2022-12-29T14:52:48;98629.88;;;8.66;91.09
75594;BME280;64176;49.156;7.810;2022-12-29T14:55:43;98635.00;;;8.63;91.09
75594;BME280;64176;49.156;7.810;2022-12-29T14:58:32;98642.72;;;8.63;90.52
75594;BME280;64176;49.156;7.810;2022-12-29T15:01:26;98639.31;;;8.59;90.01
75594;BME280;64176;49.156;7.810;2022-12-29T15:04:24;98634.97;;;8.45;91.24
75594;BME280;64176;49.156;7.810;2022-12-29T15:07:10;98639.22;;;8.41;91.81
75594;BME280;64176;49.156;7.810;2022-12-29T15:10:00;98629.72;;;8.28;92.14
75594;BME280;64176;49.156;7.810;2022-12-29T15:12:53;98646.00;;;8.25;92.69
75594;BME280;64176;49.156;7.810;2022-12-29T15:15:38;98644.25;;;8.21;93.28
75594;BME280;64176;49.156;7.810;2022-12-29T15:18:28;98649.38;;;8.15;93.08
75594;BME280;64176;49.156;7.810;2022-12-29T15:21:15;98643.41;;;8.21;93.22
75594;BME280;64176;49.156;7.810;2022-12-29T15:24:00;98643.38;;;8.13;93.27
75594;BME280;64176;49.156;7.810;2022-12-29T15:26:50;98637.31;;;8.07;93.34
75594;BME280;64176;49.156;7.810;2022-12-29T15:29:40;98651.91;;;8.04;94.06
75594;BME280;64176;49.156;7.810;2022-12-29T15:32:27;98652.81;;;8.13;93.67
75594;BME280;64176;49.156;7.810;2022-12-29T15:38:20;98650.16;;;8.02;93.83
75594;BME280;64176;49.156;7.810;2022-12-29T15:41:32;98656.22;;;8.10;93.93
75594;BME280;64176;49.156;7.810;2022-12-29T15:44:43;98659.69;;;8.18;92.90
75594;BME280;64176;49.156;7.810;2022-12-29T15:47:32;98677.84;;;8.39;92.23
75594;BME280;64176;49.156;7.810;2022-12-29T15:50:23;98671.03;;;8.48;91.88
75594;BME280;64176;49.156;7.810;2022-12-29T15:53:11;98681.34;;;8.54;91.52
75594;BME280;64176;49.156;7.810;2022-12-29T15:56:00;98664.19;;;8.50;90.93
75594;BME280;64176;49.156;7.810;2022-12-29T15:58:47;98693.41;;;8.61;90.82
75594;BME280;64176;49.156;7.810;2022-12-29T16:01:35;98689.97;;;8.59;91.06
75594;BME280;64176;49.156;7.810;2022-12-29T16:04:20;98681.38;;;8.58;90.53
75594;BME280;64176;49.156;7.810;2022-12-29T16:07:06;98694.28;;;8.61;90.84
75594;BME280;64176;49.156;7.810;2022-12-29T16:10:21;98690.81;;;8.59;90.79
75594;BME280;64176;49.156;7.810;2022-12-29T16:13:18;98692.56;;;8.66;90.38
75594;BME280;64176;49.156;7.810;2022-12-29T16:16:16;98695.13;;;8.66;90.35
75594;BME280;64176;49.156;7.810;2022-12-29T16:19:19;98704.56;;;8.64;90.37
75594;BME280;64176;49.156;7.810;2022-12-29T16:22:31;98696.00;;;8.67;90.03
75594;BME280;64176;49.156;7.810;2022-12-29T16:25:22;98706.25;;;8.62;90.31
75594;BME280;64176;49.156;7.810;2022-12-29T16:28:26;98707.13;;;8.60;90.16
75594;BME280;64176;49.156;7.810;2022-12-29T16:31:24;98716.59;;;8.61;90.69
75594;BME280;64176;49.156;7.810;2022-12-29T16:34:50;98717.41;;;8.55;90.69
75594;BME280;64176;49.156;7.810;2022-12-29T16:37:39;98722.56;;;8.55;90.55
75594;BME280;64176;49.156;7.810;2022-12-29T16:43:20;98731.97;;;8.49;90.98
75594;BME280;64176;49.156;7.810;2022-12-29T16:46:17;98738.84;;;8.53;90.56
75594;BME280;64176;49.156;7.810;2022-12-29T16:49:03;98738.00;;;8.54;90.52
75594;BME280;64176;49.156;7.810;2022-12-29T16:51:51;98740.53;;;8.46;91.19
75594;BME280;64176;49.156;7.810;2022-12-29T16:54:38;98731.06;;;8.39;91.54
75594;BME280;64176;49.156;7.810;2022-12-29T16:57:25;98728.50;;;8.44;91.38
75594;BME280;64176;49.156;7.810;2022-12-29T17:00:22;98735.38;;;8.46;90.25
75594;BME280;64176;49.156;7.810;2022-12-29T17:03:09;98732.72;;;8.32;91.25
75594;BME280;64176;49.156;7.810;2022-12-29T17:05:57;98743.06;;;8.42;91.21
75594;BME280;64176;49.156;7.810;2022-12-29T17:08:44;98754.22;;;8.36;91.10
75594;BME280;64176;49.156;7.810;2022-12-29T17:11:31;98754.25;;;8.44;90.01
75594;BME280;64176;49.156;7.810;2022-12-29T17:17:34;98772.31;;;8.47;89.86
75594;BME280;64176;49.156;7.810;2022-12-29T17:23:13;98783.44;;;8.43;89.67
75594;BME280;64176;49.156;7.810;2022-12-29T17:25:58;98800.56;;;8.36;90.65
75594;BME280;64176;49.156;7.810;2022-12-29T17:28:42;98772.25;;;8.40;90.16